createdAt,value
2023-03-11T00:00:39.706Z,997.40
2023-03-11T00:01:39.689Z,997.41
2023-03-11T00:02:39.714Z,997.42
2023-03-11T00:03:39.711Z,997.43
2023-03-11T00:04:39.669Z,997.42
2023-03-11T00:05:39.738Z,997.46
2023-03-11T00:06:39.673Z,997.54
2023-03-11T00:07:39.638Z,997.59
2023-03-11T00:08:39.619Z,997.55
2023-03-11T00:09:39.621Z,997.58
2023-03-11T00:10:39.602Z,997.61
2023-03-11T00:11:39.627Z,997.67
2023-03-11T00:12:39.582Z,997.68
2023-03-11T00:13:39.582Z,997.64
2023-03-11T00:14:39.572Z,997.68
2023-03-11T00:15:39.548Z,997.73
2023-03-11T00:16:39.567Z,997.76
2023-03-11T00:17:39.541Z,997.72
2023-03-11T00:18:39.527Z,997.72
2023-03-11T00:19:39.541Z,997.73
2023-03-11T00:20:39.490Z,997.70
2023-03-11T00:21:39.491Z,997.74
2023-03-11T00:22:39.498Z,997.64
2023-03-11T00:23:39.473Z,997.74
2023-03-11T00:24:39.460Z,997.76
2023-03-11T00:25:39.446Z,997.77
2023-03-11T00:26:39.430Z,997.78
2023-03-11T00:27:39.440Z,997.80
2023-03-11T00:28:39.413Z,997.78
2023-03-11T00:29:39.396Z,997.76
2023-03-11T00:30:39.560Z,997.82
2023-03-11T00:31:39.396Z,997.85
2023-03-11T00:32:39.419Z,997.83
2023-03-11T00:33:39.374Z,997.88
2023-03-11T00:34:39.355Z,997.86
2023-03-11T00:35:39.360Z,997.89
2023-03-11T00:36:39.346Z,997.93
2023-03-11T00:37:39.327Z,997.89
2023-03-11T00:38:39.359Z,997.93
2023-03-11T00:39:39.295Z,997.92
2023-03-11T00:40:39.297Z,997.91
2023-03-11T00:41:39.278Z,997.96
2023-03-11T00:42:39.279Z,997.96
2023-03-11T00:43:39.265Z,997.99
2023-03-11T00:44:39.263Z,998.01
2023-03-11T00:45:39.234Z,997.87
2023-03-11T00:46:39.211Z,998.04
2023-03-11T00:47:39.227Z,998.05
2023-03-11T00:48:39.193Z,998.03
2023-03-11T00:49:39.204Z,998.06
2023-03-11T00:50:39.177Z,998.02
2023-03-11T00:51:39.171Z,998.00
2023-03-11T00:52:39.156Z,998.05
2023-03-11T00:53:39.155Z,998.02
2023-03-11T00:54:39.147Z,998.02
2023-03-11T00:55:39.133Z,998.02
2023-03-11T00:56:39.114Z,998.06
2023-03-11T00:57:39.114Z,998.05
2023-03-11T00:58:39.093Z,998.08
2023-03-11T00:59:39.126Z,998.04
2023-03-11T01:00:39.075Z,998.09
2023-03-11T01:01:39.112Z,998.09
2023-03-11T01:02:39.095Z,998.17
2023-03-11T01:03:39.057Z,998.16
2023-03-11T01:04:39.081Z,998.17
2023-03-11T01:05:39.032Z,998.08
2023-03-11T01:06:45.098Z,998.22
2023-03-11T01:07:39.018Z,998.24
2023-03-11T01:08:38.982Z,998.26
2023-03-11T01:09:38.974Z,998.31
2023-03-11T01:10:38.970Z,998.29
2023-03-11T01:11:38.994Z,998.33
2023-03-11T01:12:38.954Z,998.34
2023-03-11T01:13:38.972Z,998.34
2023-03-11T01:14:38.922Z,998.35
2023-03-11T01:15:38.924Z,998.38
2023-03-11T01:16:38.928Z,998.33
2023-03-11T01:17:38.906Z,998.43
2023-03-11T01:18:38.885Z,998.40
2023-03-11T01:19:38.871Z,998.42
2023-03-11T01:20:38.859Z,998.40
2023-03-11T01:21:38.884Z,998.38
2023-03-11T01:22:38.855Z,998.40
2023-03-11T01:23:38.829Z,998.41
2023-03-11T01:24:38.813Z,998.41
2023-03-11T01:25:38.811Z,998.39
2023-03-11T01:26:38.809Z,998.37
2023-03-11T01:27:38.800Z,998.39
2023-03-11T01:28:38.773Z,998.40
2023-03-11T01:29:38.761Z,998.42
2023-03-11T01:30:38.764Z,998.40
2023-03-11T01:31:38.754Z,998.42
2023-03-11T01:32:38.826Z,998.43
2023-03-11T01:33:38.730Z,998.44
2023-03-11T01:34:38.755Z,998.43
2023-03-11T01:35:38.733Z,998.44
2023-03-11T01:36:38.687Z,998.48
2023-03-11T01:37:38.693Z,998.45
2023-03-11T01:38:38.668Z,998.50
2023-03-11T01:39:38.671Z,998.54
2023-03-11T01:40:38.650Z,998.52
2023-03-11T01:41:38.630Z,998.56
2023-03-11T01:42:38.642Z,998.56
2023-03-11T01:43:38.610Z,998.56
2023-03-11T01:44:38.604Z,998.56
2023-03-11T01:45:38.590Z,998.57
2023-03-11T01:46:38.618Z,998.58
2023-03-11T01:47:38.611Z,998.58
2023-03-11T01:48:38.562Z,998.57
2023-03-11T01:49:38.571Z,998.58
2023-03-11T01:50:38.534Z,998.60
2023-03-11T01:51:38.543Z,998.58
2023-03-11T01:52:38.530Z,998.55
2023-03-11T01:53:38.548Z,998.58
2023-03-11T01:54:38.500Z,998.60
2023-03-11T01:55:38.493Z,998.60
2023-03-11T01:56:38.468Z,998.62
2023-03-11T01:57:38.473Z,998.61
2023-03-11T01:58:38.453Z,998.64
2023-03-11T01:59:38.452Z,998.64
2023-03-11T02:00:38.426Z,998.63
2023-03-11T02:01:38.469Z,998.64
2023-03-11T02:02:38.478Z,998.64
2023-03-11T02:03:38.409Z,998.65
2023-03-11T02:04:38.405Z,998.65
2023-03-11T02:05:38.384Z,998.67
2023-03-11T02:06:38.413Z,998.66
2023-03-11T02:07:38.377Z,998.66
2023-03-11T02:08:38.345Z,998.69
2023-03-11T02:09:38.373Z,998.68
2023-03-11T02:10:38.318Z,998.69
2023-03-11T02:11:38.335Z,998.67
2023-03-11T02:12:38.319Z,998.73
2023-03-11T02:13:38.303Z,998.67
2023-03-11T02:14:38.286Z,998.71
2023-03-11T02:15:39.919Z,998.71
2023-03-11T02:16:38.264Z,998.70
2023-03-11T02:17:38.270Z,998.70
2023-03-11T02:18:38.252Z,998.74
2023-03-11T02:19:38.240Z,998.73
2023-03-11T02:20:38.224Z,998.71
2023-03-11T02:21:38.236Z,998.72
2023-03-11T02:22:38.219Z,998.73
2023-03-11T02:23:38.196Z,998.77
2023-03-11T02:24:38.202Z,998.77
2023-03-11T02:25:38.170Z,998.75
2023-03-11T02:26:38.163Z,998.76
2023-03-11T02:27:38.170Z,998.75
2023-03-11T02:28:38.138Z,998.77
2023-03-11T02:29:38.142Z,998.78
2023-03-11T02:30:38.127Z,998.77
2023-03-11T02:31:38.142Z,998.75
2023-03-11T02:32:38.274Z,998.76
2023-03-11T02:33:38.103Z,998.78
2023-03-11T02:34:38.082Z,998.77
2023-03-11T02:35:38.158Z,998.80
2023-03-11T02:36:38.067Z,998.80
2023-03-11T02:37:38.067Z,998.80
2023-03-11T02:38:38.066Z,998.80
2023-03-11T02:39:38.039Z,998.80
2023-03-11T02:40:38.087Z,998.79
2023-03-11T02:41:38.017Z,998.79
2023-03-11T02:42:38.018Z,998.80
2023-03-11T02:43:37.992Z,998.83
2023-03-11T02:44:37.977Z,998.84
2023-03-11T02:45:37.997Z,998.85
2023-03-11T02:46:38.034Z,998.86
2023-03-11T02:47:37.953Z,998.86
2023-03-11T02:48:37.944Z,998.89
2023-03-11T02:49:37.943Z,998.92
2023-03-11T02:50:37.906Z,998.93
2023-03-11T02:51:37.925Z,998.95
2023-03-11T02:52:37.914Z,998.94
2023-03-11T02:53:37.890Z,998.94
2023-03-11T02:54:37.872Z,998.96
2023-03-11T02:55:37.885Z,998.96
2023-03-11T02:56:37.842Z,998.96
2023-03-11T02:57:37.831Z,998.96
2023-03-11T02:58:37.829Z,998.96
2023-03-11T02:59:37.818Z,998.99
2023-03-11T03:00:37.818Z,999.02
2023-03-11T03:01:37.795Z,999.03
2023-03-11T03:02:37.779Z,999.05
2023-03-11T03:03:37.779Z,999.04
2023-03-11T03:04:37.760Z,999.07
2023-03-11T03:05:37.750Z,999.07
2023-03-11T03:06:37.744Z,999.10
2023-03-11T03:07:37.739Z,999.12
2023-03-11T03:08:37.728Z,999.13
2023-03-11T03:09:37.711Z,999.15
2023-03-11T03:10:37.709Z,999.14
2023-03-11T03:11:37.691Z,999.13
2023-03-11T03:12:37.675Z,999.13
2023-03-11T03:13:37.675Z,999.09
2023-03-11T03:14:37.664Z,999.09
2023-03-11T03:15:37.644Z,999.09
2023-03-11T03:16:37.693Z,999.10
2023-03-11T03:17:37.671Z,999.10
2023-03-11T03:18:37.624Z,999.11
2023-03-11T03:19:37.627Z,999.12
2023-03-11T03:20:37.584Z,999.11
2023-03-11T03:21:37.586Z,999.12
2023-03-11T03:22:37.561Z,999.10
2023-03-11T03:23:37.582Z,999.13
2023-03-11T03:24:37.547Z,999.11
2023-03-11T03:25:37.549Z,999.09
2023-03-11T03:26:37.539Z,999.10
2023-03-11T03:27:37.519Z,999.13
2023-03-11T03:28:37.530Z,999.14
2023-03-11T03:29:37.499Z,999.15
2023-03-11T03:30:37.485Z,999.16
2023-03-11T03:31:37.524Z,999.14
2023-03-11T03:32:37.479Z,999.15
2023-03-11T03:33:37.457Z,999.17
2023-03-11T03:34:37.449Z,999.17
2023-03-11T03:35:37.487Z,999.18
2023-03-11T03:36:37.424Z,999.19
2023-03-11T03:37:37.448Z,999.18
2023-03-11T03:38:37.417Z,999.19
2023-03-11T03:39:37.392Z,999.21
2023-03-11T03:40:37.399Z,999.22
2023-03-11T03:41:37.367Z,999.22
2023-03-11T03:42:37.355Z,999.22
2023-03-11T03:43:37.354Z,999.23
2023-03-11T03:44:37.341Z,999.24
2023-03-11T03:45:37.373Z,999.27
2023-03-11T03:46:37.313Z,999.29
2023-03-11T03:47:37.321Z,999.31
2023-03-11T03:48:37.304Z,999.34
2023-03-11T03:49:37.291Z,999.36
2023-03-11T03:50:37.275Z,999.36
2023-03-11T03:51:37.272Z,999.36
2023-03-11T03:52:37.256Z,999.39
2023-03-11T03:53:37.256Z,999.40
2023-03-11T03:54:37.234Z,999.39
2023-03-11T03:55:37.227Z,999.41
2023-03-11T03:56:37.261Z,999.42
2023-03-11T03:57:37.214Z,999.45
2023-03-11T03:58:37.208Z,999.43
2023-03-11T03:59:37.189Z,999.44
2023-03-11T04:00:37.179Z,999.44
2023-03-11T04:01:37.160Z,999.45
2023-03-11T04:02:37.342Z,999.47
2023-03-11T04:03:37.170Z,999.48
2023-03-11T04:04:37.135Z,999.51
2023-03-11T04:05:37.117Z,999.54
2023-03-11T04:06:37.145Z,999.55
2023-03-11T04:07:37.109Z,999.55
2023-03-11T04:08:37.106Z,999.57
2023-03-11T04:09:37.080Z,999.59
2023-03-11T04:10:37.072Z,999.61
2023-03-11T04:11:37.075Z,999.62
2023-03-11T04:12:37.075Z,999.63
2023-03-11T04:13:37.036Z,999.63
2023-03-11T04:14:37.023Z,999.65
2023-03-11T04:15:37.011Z,999.66
2023-03-11T04:16:37.018Z,999.67
2023-03-11T04:17:37.021Z,999.67
2023-03-11T04:18:37.007Z,999.69
2023-03-11T04:19:36.967Z,999.72
2023-03-11T04:20:36.967Z,999.74
2023-03-11T04:21:36.957Z,999.76
2023-03-11T04:22:36.945Z,999.79
2023-03-11T04:23:36.971Z,999.81
2023-03-11T04:24:36.925Z,999.83
2023-03-11T04:25:36.913Z,999.84
2023-03-11T04:26:36.921Z,999.83
2023-03-11T04:27:36.891Z,999.83
2023-03-11T04:28:36.887Z,999.83
2023-03-11T04:29:36.860Z,999.83
2023-03-11T04:30:36.885Z,999.83
2023-03-11T04:31:36.854Z,999.84
2023-03-11T04:32:36.861Z,999.85
2023-03-11T04:33:36.835Z,999.86
2023-03-11T04:34:36.831Z,999.88
2023-03-11T04:35:36.802Z,999.91
2023-03-11T04:36:36.787Z,999.93
2023-03-11T04:37:36.800Z,999.96
2023-03-11T04:38:36.808Z,999.97
2023-03-11T04:39:36.754Z,999.97
2023-03-11T04:40:36.747Z,999.99
2023-03-11T04:41:36.735Z,1000.01
2023-03-11T04:42:36.732Z,1000.02
2023-03-11T04:43:36.740Z,1000.02
2023-03-11T04:44:36.706Z,1000.03
2023-03-11T04:45:36.704Z,1000.04
2023-03-11T04:46:36.720Z,1000.05
2023-03-11T04:47:36.670Z,1000.07
2023-03-11T04:48:36.676Z,1000.08
2023-03-11T04:49:36.646Z,1000.07
2023-03-11T04:50:36.646Z,1000.07
2023-03-11T04:51:36.638Z,1000.10
2023-03-11T04:52:36.621Z,1000.10
2023-03-11T04:53:36.622Z,1000.13
2023-03-11T04:54:36.621Z,1000.14
2023-03-11T04:55:36.588Z,1000.14
2023-03-11T04:56:36.578Z,1000.13
2023-03-11T04:57:36.565Z,1000.13
2023-03-11T04:58:36.574Z,1000.12
2023-03-11T04:59:36.550Z,1000.12
2023-03-11T05:00:36.540Z,1000.12
2023-03-11T05:01:36.645Z,1000.12
2023-03-11T05:02:36.518Z,1000.12
2023-03-11T05:03:36.528Z,1000.13
2023-03-11T05:04:36.557Z,1000.14
2023-03-11T05:05:36.474Z,1000.14
2023-03-11T05:06:36.474Z,1000.14
2023-03-11T05:07:36.457Z,1000.15
2023-03-11T05:08:36.483Z,1000.16
2023-03-11T05:09:36.433Z,1000.16
2023-03-11T05:10:36.431Z,1000.18
2023-03-11T05:11:36.421Z,1000.19
2023-03-11T05:12:36.417Z,1000.18
2023-03-11T05:13:36.404Z,1000.17
2023-03-11T05:14:36.387Z,1000.16
2023-03-11T05:15:36.385Z,1000.15
2023-03-11T05:16:36.366Z,1000.16
2023-03-11T05:17:36.305Z,1000.17
2023-03-11T05:18:36.360Z,1000.17
2023-03-11T05:19:36.305Z,1000.19
2023-03-11T05:20:36.318Z,1000.20
2023-03-11T05:21:36.265Z,1000.18
2023-03-11T05:22:36.250Z,1000.19
2023-03-11T05:23:36.240Z,1000.22
2023-03-11T05:24:36.253Z,1000.23
2023-03-11T05:25:36.218Z,1000.25
2023-03-11T05:26:36.214Z,1000.28
2023-03-11T05:27:36.279Z,1000.28
2023-03-11T05:28:36.227Z,1000.30
2023-03-11T05:29:36.177Z,1000.32
2023-03-11T05:30:36.174Z,1000.33
2023-03-11T05:31:36.191Z,1000.35
2023-03-11T05:32:36.258Z,1000.36
2023-03-11T05:33:36.148Z,1000.37
2023-03-11T05:34:36.126Z,1000.38
2023-03-11T05:35:36.125Z,1000.41
2023-03-11T05:36:36.101Z,1000.41
2023-03-11T05:37:36.091Z,1000.43
2023-03-11T05:38:36.093Z,1000.45
2023-03-11T05:39:36.072Z,1000.46
2023-03-11T05:40:36.061Z,1000.47
2023-03-11T05:41:36.059Z,1000.48
2023-03-11T05:42:36.059Z,1000.49
2023-03-11T05:43:36.048Z,1000.51
2023-03-11T05:44:36.026Z,1000.52
2023-03-11T05:45:36.036Z,1000.52
2023-03-11T05:46:36.065Z,1000.52
2023-03-11T05:47:35.992Z,1000.52
2023-03-11T05:48:36.007Z,1000.54
2023-03-11T05:49:36.006Z,1000.55
2023-03-11T05:50:35.963Z,1000.55
2023-03-11T05:51:35.947Z,1000.54
2023-03-11T05:52:35.947Z,1000.54
2023-03-11T05:53:35.942Z,1000.54
2023-03-11T05:54:35.928Z,1000.54
2023-03-11T05:55:35.910Z,1000.54
2023-03-11T05:56:35.900Z,1000.55
2023-03-11T05:57:35.887Z,1000.55
2023-03-11T05:58:35.925Z,1000.56
2023-03-11T05:59:35.882Z,1000.58
2023-03-11T06:00:35.869Z,1000.60
2023-03-11T06:01:35.859Z,1000.61
2023-03-11T06:02:35.833Z,1000.62
2023-03-11T06:03:35.848Z,1000.62
2023-03-11T06:04:36.024Z,1000.63
2023-03-11T06:05:35.792Z,1000.65
2023-03-11T06:06:35.789Z,1000.67
2023-03-11T06:07:35.778Z,1000.69
2023-03-11T06:08:35.776Z,1000.68
2023-03-11T06:09:35.751Z,1000.68
2023-03-11T06:10:35.758Z,1000.68
2023-03-11T06:11:35.738Z,1000.67
2023-03-11T06:12:35.743Z,1000.65
2023-03-11T06:13:35.721Z,1000.65
2023-03-11T06:14:35.705Z,1000.64
2023-03-11T06:15:35.691Z,1000.64
2023-03-11T06:16:35.750Z,1000.64
2023-03-11T06:17:35.681Z,1000.64
2023-03-11T06:18:35.679Z,1000.66
2023-03-11T06:19:35.654Z,1000.67
2023-03-11T06:20:35.654Z,1000.68
2023-03-11T06:21:35.632Z,1000.69
2023-03-11T06:22:35.629Z,1000.72
2023-03-11T06:23:35.769Z,1000.71
2023-03-11T06:24:35.617Z,1000.73
2023-03-11T06:25:35.583Z,1000.73
2023-03-11T06:26:35.585Z,1000.73
2023-03-11T06:27:35.568Z,1000.74
2023-03-11T06:28:35.563Z,1000.75
2023-03-11T06:29:35.563Z,1000.78
2023-03-11T06:30:35.534Z,1000.82
2023-03-11T06:31:35.535Z,1000.85
2023-03-11T06:32:35.562Z,1000.87
2023-03-11T06:33:35.502Z,1000.90
2023-03-11T06:34:35.531Z,1000.92
2023-03-11T06:35:35.519Z,1000.95
2023-03-11T06:36:35.479Z,1000.99
2023-03-11T06:37:35.458Z,1001.01
2023-03-11T06:38:37.372Z,1001.02
2023-03-11T06:39:35.472Z,1001.04
2023-03-11T06:40:35.441Z,1001.06
2023-03-11T06:41:35.432Z,1001.08
2023-03-11T06:42:35.422Z,1001.09
2023-03-11T06:43:35.408Z,1001.09
2023-03-11T06:44:35.398Z,1001.08
2023-03-11T06:45:35.394Z,1001.06
2023-03-11T06:46:35.377Z,1001.04
2023-03-11T06:47:35.353Z,1001.03
2023-03-11T06:48:35.365Z,1001.03
2023-03-11T06:49:35.344Z,1001.05
2023-03-11T06:50:35.335Z,1001.06
2023-03-11T06:51:35.333Z,1001.08
2023-03-11T06:52:35.306Z,1001.06
2023-03-11T06:53:35.300Z,1001.08
2023-03-11T06:54:35.292Z,1001.10
2023-03-11T06:55:35.278Z,1001.14
2023-03-11T06:56:35.287Z,1001.15
2023-03-11T06:57:35.258Z,1001.16
2023-03-11T06:58:35.244Z,1001.16
2023-03-11T06:59:35.240Z,1001.18
2023-03-11T07:00:35.218Z,1001.21
2023-03-11T07:01:35.315Z,1001.23
2023-03-11T07:02:35.206Z,1001.24
2023-03-11T07:03:35.194Z,1001.23
2023-03-11T07:04:35.195Z,1001.25
2023-03-11T07:05:35.172Z,1001.28
2023-03-11T07:06:35.180Z,1001.31
2023-03-11T07:07:35.150Z,1001.33
2023-03-11T07:08:35.141Z,1001.34
2023-03-11T07:09:35.132Z,1001.36
2023-03-11T07:10:35.117Z,1001.41
2023-03-11T07:11:35.108Z,1001.43
2023-03-11T07:12:35.105Z,1001.47
2023-03-11T07:13:35.090Z,1001.49
2023-03-11T07:14:35.082Z,1001.51
2023-03-11T07:15:35.072Z,1001.53
2023-03-11T07:16:35.071Z,1001.56
2023-03-11T07:17:35.037Z,1001.60
2023-03-11T07:18:35.030Z,1001.63
2023-03-11T07:19:35.033Z,1001.65
2023-03-11T07:20:35.011Z,1001.64
2023-03-11T07:21:34.998Z,1001.67
2023-03-11T07:22:35.002Z,1001.70
2023-03-11T07:23:34.977Z,1001.72
2023-03-11T07:24:34.983Z,1001.73
2023-03-11T07:25:34.957Z,1001.74
2023-03-11T07:26:34.943Z,1001.75
2023-03-11T07:27:34.937Z,1001.74
2023-03-11T07:28:34.940Z,1001.78
2023-03-11T07:29:34.928Z,1001.82
2023-03-11T07:30:34.922Z,1001.82
2023-03-11T07:31:34.917Z,1001.85
2023-03-11T07:32:34.948Z,1001.87
2023-03-11T07:33:34.877Z,1001.88
2023-03-11T07:34:34.876Z,1001.89
2023-03-11T07:35:34.866Z,1001.89
2023-03-11T07:36:34.842Z,1001.88
2023-03-11T07:37:34.842Z,1001.90
2023-03-11T07:38:34.832Z,1001.92
2023-03-11T07:39:34.813Z,1001.94
2023-03-11T07:40:34.821Z,1001.95
2023-03-11T07:41:34.784Z,1001.95
2023-03-11T07:42:34.774Z,1001.97
2023-03-11T07:43:34.765Z,1001.99
2023-03-11T07:44:34.766Z,1002.02
2023-03-11T07:45:34.743Z,1002.02
2023-03-11T07:46:34.738Z,1002.02
2023-03-11T07:47:34.715Z,1002.05
2023-03-11T07:48:34.725Z,1002.08
2023-03-11T07:49:34.702Z,1002.11
2023-03-11T07:50:34.698Z,1002.11
2023-03-11T07:51:34.702Z,1002.13
2023-03-11T07:52:34.703Z,1002.14
2023-03-11T07:53:34.659Z,1002.17
2023-03-11T07:54:34.656Z,1002.17
2023-03-11T07:55:34.662Z,1002.16
2023-03-11T07:56:34.630Z,1002.16
2023-03-11T07:57:34.641Z,1002.15
2023-03-11T07:58:34.598Z,1002.12
2023-03-11T07:59:34.608Z,1002.11
2023-03-11T08:00:34.589Z,1002.14
2023-03-11T08:01:34.557Z,1002.15
2023-03-11T08:02:34.725Z,1002.17
2023-03-11T08:03:34.614Z,1002.18
2023-03-11T08:04:34.544Z,1002.19
2023-03-11T08:05:34.518Z,1002.17
2023-03-11T08:06:34.555Z,1002.22
2023-03-11T08:07:34.503Z,1002.22
2023-03-11T08:08:34.504Z,1002.22
2023-03-11T08:09:34.526Z,1002.22
2023-03-11T08:10:34.481Z,1002.21
2023-03-11T08:11:34.495Z,1002.19
2023-03-11T08:12:34.504Z,1002.22
2023-03-11T08:13:34.436Z,1002.21
2023-03-11T08:14:34.443Z,1002.20
2023-03-11T08:15:34.484Z,1002.19
2023-03-11T08:16:34.443Z,1002.19
2023-03-11T08:17:34.405Z,1002.21
2023-03-11T08:18:34.410Z,1002.23
2023-03-11T08:19:34.403Z,1002.25
2023-03-11T08:20:34.371Z,1002.28
2023-03-11T08:21:34.344Z,1002.30
2023-03-11T08:22:34.348Z,1002.30
2023-03-11T08:23:34.345Z,1002.29
2023-03-11T08:24:34.339Z,1002.26
2023-03-11T08:25:34.342Z,1002.25
2023-03-11T08:26:34.306Z,1002.23
2023-03-11T08:27:34.290Z,1002.22
2023-03-11T08:28:34.262Z,1002.18
2023-03-11T08:29:34.288Z,1002.17
2023-03-11T08:30:34.253Z,1002.19
2023-03-11T08:31:34.305Z,1002.19
2023-03-11T08:32:34.277Z,1002.20
2023-03-11T08:33:34.224Z,1002.22
2023-03-11T08:34:34.208Z,1002.22
2023-03-11T08:35:34.272Z,1002.22
2023-03-11T08:36:34.198Z,1002.22
2023-03-11T08:37:34.192Z,1002.23
2023-03-11T08:38:34.195Z,1002.24
2023-03-11T08:39:34.164Z,1002.27
2023-03-11T08:40:34.145Z,1002.26
2023-03-11T08:41:34.136Z,1002.30
2023-03-11T08:42:35.707Z,1002.30
2023-03-11T08:43:34.108Z,1002.30
2023-03-11T08:44:34.110Z,1002.28
2023-03-11T08:45:34.095Z,1002.27
2023-03-11T08:46:34.180Z,1002.24
2023-03-11T08:47:34.070Z,1002.27
2023-03-11T08:48:34.052Z,1002.28
2023-03-11T08:49:34.059Z,1002.30
2023-03-11T08:50:44.131Z,1002.27
2023-03-11T08:51:34.038Z,1002.30
2023-03-11T08:52:34.026Z,1002.29
2023-03-11T08:53:34.012Z,1002.27
2023-03-11T08:54:34.019Z,1002.27
2023-03-11T08:55:33.973Z,1002.26
2023-03-11T08:56:33.967Z,1002.25
2023-03-11T08:57:34.000Z,1002.27
2023-03-11T08:58:33.994Z,1002.30
2023-03-11T08:59:33.968Z,1002.28
2023-03-11T09:00:33.918Z,1002.31
2023-03-11T09:01:33.921Z,1002.32
2023-03-11T09:02:33.937Z,1002.32
2023-03-11T09:03:33.899Z,1002.33
2023-03-11T09:04:33.882Z,1002.35
2023-03-11T09:05:33.939Z,1002.34
2023-03-11T09:06:33.891Z,1002.37
2023-03-11T09:07:33.858Z,1002.37
2023-03-11T09:08:33.833Z,1002.38
2023-03-11T09:09:33.850Z,1002.38
2023-03-11T09:10:33.850Z,1002.41
2023-03-11T09:11:33.878Z,1002.41
2023-03-11T09:12:33.807Z,1002.40
2023-03-11T09:13:33.793Z,1002.42
2023-03-11T09:14:33.780Z,1002.41
2023-03-11T09:15:33.771Z,1002.37
2023-03-11T09:16:33.824Z,1002.36
2023-03-11T09:17:33.750Z,1002.39
2023-03-11T09:18:33.726Z,1002.35
2023-03-11T09:19:33.740Z,1002.33
2023-03-11T09:20:33.705Z,1002.32
2023-03-11T09:21:33.733Z,1002.32
2023-03-11T09:22:33.697Z,1002.32
2023-03-11T09:23:33.678Z,1002.29
2023-03-11T09:24:33.669Z,1002.31
2023-03-11T09:25:33.665Z,1002.33
2023-03-11T09:26:33.659Z,1002.35
2023-03-11T09:27:33.638Z,1002.35
2023-03-11T09:28:33.631Z,1002.36
2023-03-11T09:29:33.648Z,1002.35
2023-03-11T09:30:33.596Z,1002.40
2023-03-11T09:31:33.705Z,1002.43
2023-03-11T09:32:33.625Z,1002.45
2023-03-11T09:33:33.582Z,1002.47
2023-03-11T09:34:33.577Z,1002.46
2023-03-11T09:35:33.609Z,1002.40
2023-03-11T09:36:33.540Z,1002.35
2023-03-11T09:37:33.532Z,1002.35
2023-03-11T09:38:33.509Z,1002.40
2023-03-11T09:39:33.538Z,1002.43
2023-03-11T09:40:33.542Z,1002.45
2023-03-11T09:41:33.518Z,1002.46
2023-03-11T09:42:33.477Z,1002.47
2023-03-11T09:43:33.469Z,1002.42
2023-03-11T09:44:33.466Z,1002.42
2023-03-11T09:45:33.443Z,1002.44
2023-03-11T09:46:33.476Z,1002.45
2023-03-11T09:47:33.427Z,1002.47
2023-03-11T09:48:33.414Z,1002.45
2023-03-11T09:49:33.409Z,1002.45
2023-03-11T09:50:33.396Z,1002.46
2023-03-11T09:51:33.374Z,1002.50
2023-03-11T09:52:33.372Z,1002.52
2023-03-11T09:53:33.375Z,1002.53
2023-03-11T09:54:33.355Z,1002.55
2023-03-11T09:55:33.333Z,1002.52
2023-03-11T09:56:33.323Z,1002.49
2023-03-11T09:57:33.311Z,1002.50
2023-03-11T09:58:33.302Z,1002.51
2023-03-11T09:59:33.307Z,1002.53
2023-03-11T10:00:33.275Z,1002.54
2023-03-11T10:01:33.283Z,1002.55
2023-03-11T10:02:33.290Z,1002.54
2023-03-11T10:03:33.284Z,1002.59
2023-03-11T10:04:33.258Z,1002.66
2023-03-11T10:05:33.240Z,1002.71
2023-03-11T10:06:33.213Z,1002.74
2023-03-11T10:07:33.202Z,1002.73
2023-03-11T10:08:33.189Z,1002.74
2023-03-11T10:09:33.189Z,1002.74
2023-03-11T10:10:33.171Z,1002.76
2023-03-11T10:11:33.158Z,1002.80
2023-03-11T10:12:33.149Z,1002.82
2023-03-11T10:13:33.134Z,1002.83
2023-03-11T10:14:33.127Z,1002.84
2023-03-11T10:15:33.125Z,1002.86
2023-03-11T10:16:33.157Z,1002.87
2023-03-11T10:17:33.101Z,1002.91
2023-03-11T10:18:33.074Z,1002.93
2023-03-11T10:19:33.080Z,1002.95
2023-03-11T10:20:33.058Z,1002.95
2023-03-11T10:21:33.045Z,1002.90
2023-03-11T10:22:33.040Z,1002.86
2023-03-11T10:23:33.032Z,1002.83
2023-03-11T10:24:33.045Z,1002.82
2023-03-11T10:25:33.004Z,1002.82
2023-03-11T10:26:33.011Z,1002.85
2023-03-11T10:27:33.015Z,1002.82
2023-03-11T10:28:32.967Z,1002.81
2023-03-11T10:29:32.970Z,1002.79
2023-03-11T10:30:32.946Z,1002.80
2023-03-11T10:31:32.988Z,1002.80
2023-03-11T10:32:33.130Z,1002.82
2023-03-11T10:33:32.924Z,1002.85
2023-03-11T10:34:32.923Z,1002.89
2023-03-11T10:35:33.066Z,1002.93
2023-03-11T10:36:32.883Z,1002.95
2023-03-11T10:37:47.954Z,1002.95
2023-03-11T10:38:32.886Z,1002.95
2023-03-11T10:39:32.863Z,1002.95
2023-03-11T10:40:32.846Z,1002.95
2023-03-11T10:41:32.867Z,1002.94
2023-03-11T10:42:32.816Z,1002.93
2023-03-11T10:43:32.848Z,1002.93
2023-03-11T10:44:32.820Z,1002.93
2023-03-11T10:45:32.853Z,1002.93
2023-03-11T10:46:32.770Z,1002.96
2023-03-11T10:47:32.763Z,1003.00
2023-03-11T10:48:32.755Z,1003.05
2023-03-11T10:49:32.757Z,1003.08
2023-03-11T10:50:33.516Z,1003.10
2023-03-11T10:51:32.744Z,1003.13
2023-03-11T10:52:32.722Z,1003.12
2023-03-11T10:53:32.733Z,1003.16
2023-03-11T10:54:32.697Z,1003.17
2023-03-11T10:55:32.693Z,1003.15
2023-03-11T10:56:32.695Z,1003.15
2023-03-11T10:57:32.676Z,1003.14
2023-03-11T10:58:32.663Z,1003.19
2023-03-11T10:59:32.652Z,1003.20
2023-03-11T11:00:32.621Z,1003.21
2023-03-11T11:01:32.678Z,1003.21
2023-03-11T11:02:32.652Z,1003.19
2023-03-11T11:03:32.592Z,1003.18
2023-03-11T11:04:32.695Z,1003.15
2023-03-11T11:05:32.587Z,1003.11
2023-03-11T11:06:32.557Z,1003.06
2023-03-11T11:07:32.552Z,1003.06
2023-03-11T11:08:32.535Z,1003.02
2023-03-11T11:09:32.561Z,1003.07
2023-03-11T11:10:32.563Z,1003.07
2023-03-11T11:11:32.519Z,1003.05
2023-03-11T11:12:32.492Z,1003.02
2023-03-11T11:13:32.532Z,1002.96
2023-03-11T11:14:32.484Z,1002.96
2023-03-11T11:15:32.482Z,1002.96
2023-03-11T11:16:32.495Z,1002.93
2023-03-11T11:17:32.479Z,1002.82
2023-03-11T11:18:32.443Z,1002.86
2023-03-11T11:19:32.471Z,1002.77
2023-03-11T11:20:32.428Z,1002.75
2023-03-11T11:21:32.423Z,1002.77
2023-03-11T11:22:32.382Z,1002.81
2023-03-11T11:23:32.409Z,1002.86
2023-03-11T11:24:32.419Z,1002.91
2023-03-11T11:25:32.399Z,1002.95
2023-03-11T11:26:32.348Z,1002.97
2023-03-11T11:27:32.363Z,1002.95
2023-03-11T11:28:32.338Z,1002.95
2023-03-11T11:29:32.316Z,1002.94
2023-03-11T11:30:32.351Z,1002.92
2023-03-11T11:31:32.292Z,1002.90
2023-03-11T11:32:32.332Z,1002.88
2023-03-11T11:33:32.283Z,1002.88
2023-03-11T11:34:32.321Z,1002.88
2023-03-11T11:35:32.257Z,1002.89
2023-03-11T11:36:32.229Z,1002.91
2023-03-11T11:37:32.316Z,1002.93
2023-03-11T11:38:32.216Z,1002.93
2023-03-11T11:39:32.237Z,1002.94
2023-03-11T11:40:32.195Z,1002.94
2023-03-11T11:41:32.176Z,1002.93
2023-03-11T11:42:32.176Z,1002.92
2023-03-11T11:43:32.175Z,1002.91
2023-03-11T11:44:32.157Z,1002.90
2023-03-11T11:45:32.140Z,1002.90
2023-03-11T11:46:32.307Z,1002.91
2023-03-11T11:47:32.134Z,1002.92
2023-03-11T11:48:32.106Z,1002.94
2023-03-11T11:49:32.096Z,1002.96
2023-03-11T11:50:32.080Z,1003.00
2023-03-11T11:51:32.093Z,1003.01
2023-03-11T11:52:32.069Z,1003.04
2023-03-11T11:53:32.045Z,1003.05
2023-03-11T11:54:32.045Z,1003.06
2023-03-11T11:55:32.027Z,1003.08
2023-03-11T11:56:32.018Z,1003.09
2023-03-11T11:57:32.010Z,1003.10
2023-03-11T11:58:31.996Z,1003.11
2023-03-11T11:59:31.999Z,1003.11
2023-03-11T12:00:31.958Z,1003.12
2023-03-11T12:01:31.955Z,1003.12
2023-03-11T12:02:31.941Z,1003.14
2023-03-11T12:03:31.984Z,1003.14
2023-03-11T12:04:31.936Z,1003.12
2023-03-11T12:05:31.942Z,1003.10
2023-03-11T12:06:31.892Z,1003.08
2023-03-11T12:07:31.890Z,1003.05
2023-03-11T12:08:31.873Z,1003.03
2023-03-11T12:09:31.889Z,1002.99
2023-03-11T12:10:31.857Z,1002.97
2023-03-11T12:11:31.844Z,1002.92
2023-03-11T12:12:31.831Z,1002.91
2023-03-11T12:13:31.825Z,1002.95
2023-03-11T12:14:31.833Z,1002.96